Waubun, Minnesota
Current Conditions -  °F | °C
As of 1:35 PM on Sunday 23 Nov 2014 (Local Time) from K3N8 Reporting Station
Overcast Overcast  
Wind Chill: 33°   Ceiling: 4600
Heat Index: 38°   Visibility: 10mi
Dew Point: 35°   Wind: 8mph
Humidity: 88%   Direction: 250°WSW
Pressure: 29.41"   Gusts: NA
Location:  47.18°N, 95.94°W
Report Text: K3N8 231935Z AUTO 25007KT 10SM SCT029 SCT040 OVC046 04/02 A2941 RMK AO2 T00360018
Loading
Personal Weather Stations






























Interactive Weather Map New forecast layout! Learn more

10-Day Weather Forecast

Advertisements
Track Severe Weather on mobile